sensor_id;sensor_type;location;lat;lon;timestamp;P1;durP1;ratioP1;P2;durP2;ratioP2
43048;SDS011;28673;44.412;11.918;2023-02-15T00:00:14;56.90;;;26.83;;
43048;SDS011;28673;44.412;11.918;2023-02-15T00:02:59;59.88;;;27.08;;
43048;SDS011;28673;44.412;11.918;2023-02-15T00:08:28;56.67;;;28.35;;
43048;SDS011;28673;44.412;11.918;2023-02-15T00:11:32;55.30;;;25.45;;
43048;SDS011;28673;44.412;11.918;2023-02-15T00:14:27;56.22;;;29.00;;
43048;SDS011;28673;44.412;11.918;2023-02-15T00:16:53;60.75;;;27.50;;
43048;SDS011;28673;44.412;11.918;2023-02-15T00:19:20;67.28;;;28.83;;
43048;SDS011;28673;44.412;11.918;2023-02-15T00:22:05;65.28;;;30.80;;
43048;SDS011;28673;44.412;11.918;2023-02-15T00:24:50;65.32;;;28.65;;
43048;SDS011;28673;44.412;11.918;2023-02-15T00:27:35;59.33;;;28.80;;
43048;SDS011;28673;44.412;11.918;2023-02-15T00:30:19;67.25;;;28.85;;
43048;SDS011;28673;44.412;11.918;2023-02-15T00:32:47;55.85;;;28.83;;
43048;SDS011;28673;44.412;11.918;2023-02-15T00:35:13;59.13;;;28.95;;
43048;SDS011;28673;44.412;11.918;2023-02-15T00:37:39;56.80;;;26.58;;
43048;SDS011;28673;44.412;11.918;2023-02-15T00:40:23;57.58;;;25.58;;
43048;SDS011;28673;44.412;11.918;2023-02-15T00:42:49;64.53;;;27.80;;
43048;SDS011;28673;44.412;11.918;2023-02-15T00:45:15;62.03;;;29.70;;
43048;SDS011;28673;44.412;11.918;2023-02-15T00:48:18;55.38;;;26.38;;
43048;SDS011;28673;44.412;11.918;2023-02-15T00:53:48;48.22;;;26.35;;
43048;SDS011;28673;44.412;11.918;2023-02-15T00:56:33;57.45;;;26.25;;
43048;SDS011;28673;44.412;11.918;2023-02-15T00:58:59;57.88;;;26.75;;
43048;SDS011;28673;44.412;11.918;2023-02-15T01:01:25;55.25;;;26.50;;
43048;SDS011;28673;44.412;11.918;2023-02-15T01:03:51;54.20;;;26.50;;
43048;SDS011;28673;44.412;11.918;2023-02-15T01:06:17;58.22;;;27.52;;
43048;SDS011;28673;44.412;11.918;2023-02-15T01:08:44;55.63;;;28.10;;
43048;SDS011;28673;44.412;11.918;2023-02-15T01:11:29;59.70;;;27.40;;
43048;SDS011;28673;44.412;11.918;2023-02-15T01:13:57;58.17;;;27.25;;
43048;SDS011;28673;44.412;11.918;2023-02-15T01:16:24;55.15;;;25.58;;
43048;SDS011;28673;44.412;11.918;2023-02-15T01:18:51;58.15;;;27.48;;
43048;SDS011;28673;44.412;11.918;2023-02-15T01:21:20;61.25;;;29.30;;
43048;SDS011;28673;44.412;11.918;2023-02-15T01:26:39;55.97;;;26.67;;
43048;SDS011;28673;44.412;11.918;2023-02-15T01:29:25;47.88;;;24.67;;
43048;SDS011;28673;44.412;11.918;2023-02-15T01:32:10;55.05;;;24.35;;
43048;SDS011;28673;44.412;11.918;2023-02-15T01:34:36;56.80;;;27.45;;
43048;SDS011;28673;44.412;11.918;2023-02-15T01:37:03;55.05;;;27.88;;
43048;SDS011;28673;44.412;11.918;2023-02-15T01:39:47;57.97;;;28.13;;
43048;SDS011;28673;44.412;11.918;2023-02-15T01:42:14;58.05;;;26.58;;
43048;SDS011;28673;44.412;11.918;2023-02-15T01:44:55;55.75;;;28.73;;
43048;SDS011;28673;44.412;11.918;2023-02-15T01:47:36;55.95;;;25.73;;
43048;SDS011;28673;44.412;11.918;2023-02-15T01:50:41;58.50;;;27.02;;
43048;SDS011;28673;44.412;11.918;2023-02-15T01:53:13;51.95;;;23.88;;
43048;SDS011;28673;44.412;11.918;2023-02-15T01:55:46;51.85;;;24.08;;
43048;SDS011;28673;44.412;11.918;2023-02-15T01:58:17;56.08;;;26.00;;
43048;SDS011;28673;44.412;11.918;2023-02-15T02:00:44;51.40;;;25.38;;
43048;SDS011;28673;44.412;11.918;2023-02-15T02:03:10;55.13;;;25.45;;
43048;SDS011;28673;44.412;11.918;2023-02-15T02:05:37;50.42;;;25.38;;
43048;SDS011;28673;44.412;11.918;2023-02-15T02:08:04;49.63;;;22.27;;
43048;SDS011;28673;44.412;11.918;2023-02-15T02:10:31;47.00;;;21.25;;
43048;SDS011;28673;44.412;11.918;2023-02-15T02:12:59;46.00;;;23.73;;
43048;SDS011;28673;44.412;11.918;2023-02-15T02:21:28;45.67;;;23.05;;
43048;SDS011;28673;44.412;11.918;2023-02-15T02:35:28;47.53;;;21.23;;
43048;SDS011;28673;44.412;11.918;2023-02-15T02:46:52;50.90;;;22.92;;
43048;SDS011;28673;44.412;11.918;2023-02-15T02:52:52;43.92;;;20.90;;
43048;SDS011;28673;44.412;11.918;2023-02-15T03:00:21;43.42;;;20.90;;
43048;SDS011;28673;44.412;11.918;2023-02-15T03:06:11;38.72;;;20.15;;
43048;SDS011;28673;44.412;11.918;2023-02-15T03:09:06;50.25;;;18.83;;
43048;SDS011;28673;44.412;11.918;2023-02-15T03:14:51;38.70;;;18.58;;
43048;SDS011;28673;44.412;11.918;2023-02-15T03:20:28;41.33;;;20.55;;
43048;SDS011;28673;44.412;11.918;2023-02-15T03:23:01;46.05;;;20.95;;
43048;SDS011;28673;44.412;11.918;2023-02-15T03:25:46;39.45;;;18.85;;
43048;SDS011;28673;44.412;11.918;2023-02-15T03:28:22;38.90;;;19.23;;
43048;SDS011;28673;44.412;11.918;2023-02-15T03:31:07;51.05;;;20.90;;
43048;SDS011;28673;44.412;11.918;2023-02-15T03:33:55;44.70;;;19.13;;
43048;SDS011;28673;44.412;11.918;2023-02-15T03:39:20;39.50;;;18.08;;
43048;SDS011;28673;44.412;11.918;2023-02-15T03:47:54;39.72;;;20.40;;
43048;SDS011;28673;44.412;11.918;2023-02-15T03:50:32;45.40;;;21.13;;
43048;SDS011;28673;44.412;11.918;2023-02-15T03:53:20;44.40;;;20.70;;
43048;SDS011;28673;44.412;11.918;2023-02-15T03:55:48;45.75;;;21.00;;
43048;SDS011;28673;44.412;11.918;2023-02-15T03:58:18;44.05;;;19.48;;
43048;SDS011;28673;44.412;11.918;2023-02-15T04:04:32;40.78;;;20.15;;
43048;SDS011;28673;44.412;11.918;2023-02-15T04:07:03;45.60;;;21.30;;
43048;SDS011;28673;44.412;11.918;2023-02-15T04:09:31;49.38;;;21.95;;
43048;SDS011;28673;44.412;11.918;2023-02-15T04:12:15;45.42;;;19.45;;
43048;SDS011;28673;44.412;11.918;2023-02-15T04:14:41;45.55;;;20.13;;
43048;SDS011;28673;44.412;11.918;2023-02-15T04:17:25;44.80;;;22.65;;
43048;SDS011;28673;44.412;11.918;2023-02-15T04:19:51;44.00;;;21.50;;
43048;SDS011;28673;44.412;11.918;2023-02-15T04:22:54;43.42;;;19.85;;
43048;SDS011;28673;44.412;11.918;2023-02-15T04:28:23;39.20;;;19.38;;
43048;SDS011;28673;44.412;11.918;2023-02-15T04:34:12;42.95;;;19.83;;
43048;SDS011;28673;44.412;11.918;2023-02-15T04:36:38;44.13;;;19.77;;
43048;SDS011;28673;44.412;11.918;2023-02-15T04:39:23;39.60;;;19.08;;
43048;SDS011;28673;44.412;11.918;2023-02-15T04:44:34;38.97;;;19.60;;
43048;SDS011;28673;44.412;11.918;2023-02-15T04:50:02;42.63;;;20.02;;
43048;SDS011;28673;44.412;11.918;2023-02-15T04:55:50;41.10;;;19.63;;
43048;SDS011;28673;44.412;11.918;2023-02-15T04:58:35;44.42;;;19.73;;
43048;SDS011;28673;44.412;11.918;2023-02-15T05:01:38;36.65;;;19.05;;
43048;SDS011;28673;44.412;11.918;2023-02-15T05:04:04;47.20;;;20.88;;
43048;SDS011;28673;44.412;11.918;2023-02-15T05:06:48;43.58;;;20.33;;
43048;SDS011;28673;44.412;11.918;2023-02-15T05:09:15;48.42;;;21.15;;
43048;SDS011;28673;44.412;11.918;2023-02-15T05:11:42;50.75;;;20.25;;
43048;SDS011;28673;44.412;11.918;2023-02-15T05:14:08;45.83;;;20.27;;
43048;SDS011;28673;44.412;11.918;2023-02-15T05:16:52;46.20;;;22.38;;
43048;SDS011;28673;44.412;11.918;2023-02-15T05:19:19;53.00;;;22.45;;
43048;SDS011;28673;44.412;11.918;2023-02-15T05:22:03;49.42;;;20.98;;
43048;SDS011;28673;44.412;11.918;2023-02-15T05:24:29;47.45;;;21.60;;
43048;SDS011;28673;44.412;11.918;2023-02-15T05:27:14;49.75;;;23.75;;
43048;SDS011;28673;44.412;11.918;2023-02-15T05:29:58;45.38;;;22.00;;
43048;SDS011;28673;44.412;11.918;2023-02-15T05:32:24;47.40;;;21.77;;
43048;SDS011;28673;44.412;11.918;2023-02-15T05:34:50;41.78;;;21.92;;
43048;SDS011;28673;44.412;11.918;2023-02-15T05:40:18;41.47;;;21.23;;
43048;SDS011;28673;44.412;11.918;2023-02-15T05:42:44;53.50;;;20.85;;
43048;SDS011;28673;44.412;11.918;2023-02-15T05:45:10;42.88;;;19.42;;
43048;SDS011;28673;44.412;11.918;2023-02-15T05:47:36;42.60;;;21.85;;
43048;SDS011;28673;44.412;11.918;2023-02-15T05:50:20;46.63;;;21.23;;
43048;SDS011;28673;44.412;11.918;2023-02-15T05:52:46;41.17;;;22.00;;
43048;SDS011;28673;44.412;11.918;2023-02-15T05:55:31;48.17;;;21.42;;
43048;SDS011;28673;44.412;11.918;2023-02-15T05:57:57;67.70;;;25.92;;
43048;SDS011;28673;44.412;11.918;2023-02-15T06:03:07;65.55;;;28.38;;
43048;SDS011;28673;44.412;11.918;2023-02-15T06:05:33;55.90;;;24.38;;
43048;SDS011;28673;44.412;11.918;2023-02-15T06:07:58;63.13;;;26.48;;
43048;SDS011;28673;44.412;11.918;2023-02-15T06:10:24;60.53;;;24.40;;
43048;SDS011;28673;44.412;11.918;2023-02-15T06:12:50;57.15;;;25.95;;
43048;SDS011;28673;44.412;11.918;2023-02-15T06:15:16;61.53;;;25.50;;
43048;SDS011;28673;44.412;11.918;2023-02-15T06:17:42;71.47;;;25.95;;
43048;SDS011;28673;44.412;11.918;2023-02-15T06:22:53;43.72;;;21.88;;
43048;SDS011;28673;44.412;11.918;2023-02-15T06:25:19;58.05;;;22.88;;
43048;SDS011;28673;44.412;11.918;2023-02-15T06:27:45;54.22;;;22.98;;
43048;SDS011;28673;44.412;11.918;2023-02-15T06:30:11;52.83;;;24.17;;
43048;SDS011;28673;44.412;11.918;2023-02-15T06:32:37;49.45;;;23.10;;
43048;SDS011;28673;44.412;11.918;2023-02-15T06:35:03;55.40;;;22.98;;
43048;SDS011;28673;44.412;11.918;2023-02-15T06:37:29;46.22;;;21.48;;
43048;SDS011;28673;44.412;11.918;2023-02-15T06:39:55;54.60;;;25.52;;
43048;SDS011;28673;44.412;11.918;2023-02-15T06:42:21;52.92;;;23.73;;
43048;SDS011;28673;44.412;11.918;2023-02-15T06:47:32;49.72;;;22.02;;
43048;SDS011;28673;44.412;11.918;2023-02-15T06:53:01;48.72;;;21.13;;
43048;SDS011;28673;44.412;11.918;2023-02-15T06:55:27;49.97;;;23.05;;
43048;SDS011;28673;44.412;11.918;2023-02-15T07:00:38;53.47;;;22.77;;
43048;SDS011;28673;44.412;11.918;2023-02-15T07:03:04;51.58;;;25.00;;
43048;SDS011;28673;44.412;11.918;2023-02-15T07:05:32;57.30;;;23.42;;
43048;SDS011;28673;44.412;11.918;2023-02-15T07:07:59;58.40;;;23.75;;
43048;SDS011;28673;44.412;11.918;2023-02-15T07:10:26;52.00;;;23.17;;
43048;SDS011;28673;44.412;11.918;2023-02-15T07:12:52;58.03;;;23.45;;
43048;SDS011;28673;44.412;11.918;2023-02-15T07:15:18;57.08;;;25.20;;
43048;SDS011;28673;44.412;11.918;2023-02-15T07:17:46;54.45;;;24.98;;
43048;SDS011;28673;44.412;11.918;2023-02-15T07:20:14;54.42;;;25.65;;
43048;SDS011;28673;44.412;11.918;2023-02-15T07:22:43;52.08;;;26.90;;
43048;SDS011;28673;44.412;11.918;2023-02-15T07:25:10;54.80;;;24.23;;
43048;SDS011;28673;44.412;11.918;2023-02-15T07:28:14;54.67;;;24.00;;
43048;SDS011;28673;44.412;11.918;2023-02-15T07:30:41;62.00;;;26.40;;
43048;SDS011;28673;44.412;11.918;2023-02-15T07:33:07;43.80;;;22.63;;
43048;SDS011;28673;44.412;11.918;2023-02-15T07:35:48;50.55;;;24.17;;
43048;SDS011;28673;44.412;11.918;2023-02-15T07:38:23;50.13;;;23.35;;
43048;SDS011;28673;44.412;11.918;2023-02-15T07:40:57;50.88;;;22.83;;
43048;SDS011;28673;44.412;11.918;2023-02-15T07:43:34;47.60;;;21.67;;
43048;SDS011;28673;44.412;11.918;2023-02-15T07:46:03;42.33;;;21.40;;
43048;SDS011;28673;44.412;11.918;2023-02-15T07:48:49;43.33;;;22.02;;
43048;SDS011;28673;44.412;11.918;2023-02-15T07:51:33;50.25;;;25.63;;
43048;SDS011;28673;44.412;11.918;2023-02-15T07:53:59;48.55;;;23.80;;
43048;SDS011;28673;44.412;11.918;2023-02-15T07:56:25;57.35;;;23.25;;
43048;SDS011;28673;44.412;11.918;2023-02-15T07:59:09;40.55;;;21.25;;
43048;SDS011;28673;44.412;11.918;2023-02-15T08:01:36;55.38;;;23.88;;
43048;SDS011;28673;44.412;11.918;2023-02-15T08:07:06;54.53;;;24.77;;
43048;SDS011;28673;44.412;11.918;2023-02-15T08:09:33;54.67;;;25.27;;
43048;SDS011;28673;44.412;11.918;2023-02-15T08:11:59;58.42;;;25.10;;
43048;SDS011;28673;44.412;11.918;2023-02-15T08:14:26;52.92;;;24.00;;
43048;SDS011;28673;44.412;11.918;2023-02-15T08:17:11;51.88;;;22.75;;
43048;SDS011;28673;44.412;11.918;2023-02-15T08:19:56;49.63;;;21.83;;
43048;SDS011;28673;44.412;11.918;2023-02-15T08:22:21;46.85;;;22.85;;
43048;SDS011;28673;44.412;11.918;2023-02-15T08:25:06;46.50;;;22.73;;
43048;SDS011;28673;44.412;11.918;2023-02-15T08:27:35;47.40;;;21.65;;
43048;SDS011;28673;44.412;11.918;2023-02-15T08:30:01;42.72;;;20.98;;
43048;SDS011;28673;44.412;11.918;2023-02-15T08:35:49;55.95;;;23.73;;
43048;SDS011;28673;44.412;11.918;2023-02-15T08:38:15;47.80;;;20.92;;
43048;SDS011;28673;44.412;11.918;2023-02-15T08:40:41;46.38;;;22.40;;
43048;SDS011;28673;44.412;11.918;2023-02-15T08:43:06;49.53;;;23.27;;
43048;SDS011;28673;44.412;11.918;2023-02-15T08:45:51;46.60;;;21.17;;
43048;SDS011;28673;44.412;11.918;2023-02-15T08:48:17;46.60;;;22.05;;
43048;SDS011;28673;44.412;11.918;2023-02-15T08:51:08;52.60;;;24.73;;
43048;SDS011;28673;44.412;11.918;2023-02-15T08:53:39;53.75;;;23.13;;
43048;SDS011;28673;44.412;11.918;2023-02-15T08:56:06;48.13;;;22.15;;
43048;SDS011;28673;44.412;11.918;2023-02-15T08:58:33;50.22;;;22.55;;
43048;SDS011;28673;44.412;11.918;2023-02-15T09:00:59;50.55;;;21.92;;
43048;SDS011;28673;44.412;11.918;2023-02-15T09:03:27;45.35;;;21.65;;
43048;SDS011;28673;44.412;11.918;2023-02-15T09:05:57;52.45;;;23.50;;
43048;SDS011;28673;44.412;11.918;2023-02-15T09:08:24;70.30;;;25.40;;
43048;SDS011;28673;44.412;11.918;2023-02-15T09:13:36;56.65;;;25.38;;
43048;SDS011;28673;44.412;11.918;2023-02-15T09:16:04;56.28;;;24.20;;
43048;SDS011;28673;44.412;11.918;2023-02-15T09:18:34;62.65;;;26.48;;
43048;SDS011;28673;44.412;11.918;2023-02-15T09:21:09;60.40;;;25.10;;
43048;SDS011;28673;44.412;11.918;2023-02-15T09:23:58;63.65;;;24.33;;
43048;SDS011;28673;44.412;11.918;2023-02-15T09:26:27;61.78;;;25.48;;
43048;SDS011;28673;44.412;11.918;2023-02-15T09:28:55;59.60;;;26.00;;
43048;SDS011;28673;44.412;11.918;2023-02-15T09:31:24;64.80;;;27.20;;
43048;SDS011;28673;44.412;11.918;2023-02-15T09:33:52;62.63;;;26.33;;
43048;SDS011;28673;44.412;11.918;2023-02-15T09:36:20;66.15;;;27.75;;
43048;SDS011;28673;44.412;11.918;2023-02-15T09:39:14;69.57;;;28.45;;
43048;SDS011;28673;44.412;11.918;2023-02-15T09:42:01;61.75;;;26.35;;
43048;SDS011;28673;44.412;11.918;2023-02-15T09:47:51;57.15;;;27.05;;
43048;SDS011;28673;44.412;11.918;2023-02-15T09:50:59;79.55;;;28.85;;
43048;SDS011;28673;44.412;11.918;2023-02-15T09:56:49;73.65;;;29.20;;
43048;SDS011;28673;44.412;11.918;2023-02-15T09:59:58;72.15;;;31.13;;
43048;SDS011;28673;44.412;11.918;2023-02-15T10:05:21;72.43;;;28.95;;
43048;SDS011;28673;44.412;11.918;2023-02-15T10:08:20;74.22;;;32.28;;
43048;SDS011;28673;44.412;11.918;2023-02-15T10:13:53;79.05;;;31.27;;
43048;SDS011;28673;44.412;11.918;2023-02-15T10:23:26;71.32;;;29.63;;
43048;SDS011;28673;44.412;11.918;2023-02-15T10:31:48;82.30;;;33.97;;
43048;SDS011;28673;44.412;11.918;2023-02-15T10:35:01;77.78;;;33.42;;
43048;SDS011;28673;44.412;11.918;2023-02-15T10:43:38;71.05;;;29.88;;
43048;SDS011;28673;44.412;11.918;2023-02-15T10:57:26;88.60;;;37.08;;
43048;SDS011;28673;44.412;11.918;2023-02-15T11:03:05;87.32;;;37.63;;
43048;SDS011;28673;44.412;11.918;2023-02-15T11:08:47;95.80;;;38.50;;
43048;SDS011;28673;44.412;11.918;2023-02-15T11:11:39;89.63;;;36.38;;
43048;SDS011;28673;44.412;11.918;2023-02-15T11:14:12;90.47;;;37.28;;
43048;SDS011;28673;44.412;11.918;2023-02-15T11:16:59;86.28;;;37.08;;
43048;SDS011;28673;44.412;11.918;2023-02-15T11:23:06;82.13;;;36.38;;
43048;SDS011;28673;44.412;11.918;2023-02-15T11:25:40;84.55;;;35.22;;
43048;SDS011;28673;44.412;11.918;2023-02-15T11:28:13;86.03;;;35.72;;
43048;SDS011;28673;44.412;11.918;2023-02-15T11:31:26;84.97;;;37.25;;
43048;SDS011;28673;44.412;11.918;2023-02-15T11:34:04;81.75;;;34.22;;
43048;SDS011;28673;44.412;11.918;2023-02-15T11:36:38;84.43;;;34.35;;
43048;SDS011;28673;44.412;11.918;2023-02-15T11:45:16;79.85;;;34.97;;
43048;SDS011;28673;44.412;11.918;2023-02-15T11:47:43;85.38;;;36.80;;
43048;SDS011;28673;44.412;11.918;2023-02-15T11:50:31;84.63;;;35.00;;
43048;SDS011;28673;44.412;11.918;2023-02-15T11:52:59;80.32;;;34.53;;
43048;SDS011;28673;44.412;11.918;2023-02-15T11:55:28;82.07;;;34.97;;
43048;SDS011;28673;44.412;11.918;2023-02-15T11:58:22;74.90;;;31.77;;
43048;SDS011;28673;44.412;11.918;2023-02-15T12:01:14;80.88;;;34.13;;
43048;SDS011;28673;44.412;11.918;2023-02-15T12:07:46;82.18;;;35.72;;
43048;SDS011;28673;44.412;11.918;2023-02-15T12:12:47;76.28;;;33.50;;
43048;SDS011;28673;44.412;11.918;2023-02-15T12:18:00;77.30;;;32.45;;
43048;SDS011;28673;44.412;11.918;2023-02-15T12:20:31;81.90;;;34.45;;
43048;SDS011;28673;44.412;11.918;2023-02-15T12:23:05;76.05;;;32.10;;
43048;SDS011;28673;44.412;11.918;2023-02-15T12:25:53;86.60;;;33.95;;
43048;SDS011;28673;44.412;11.918;2023-02-15T12:30:46;81.80;;;33.33;;
43048;SDS011;28673;44.412;11.918;2023-02-15T12:41:36;73.80;;;31.73;;
43048;SDS011;28673;44.412;11.918;2023-02-15T12:47:19;78.47;;;31.92;;
43048;SDS011;28673;44.412;11.918;2023-02-15T12:52:47;69.05;;;32.22;;
43048;SDS011;28673;44.412;11.918;2023-02-15T12:55:20;70.22;;;29.00;;
43048;SDS011;28673;44.412;11.918;2023-02-15T13:01:09;78.25;;;31.48;;
43048;SDS011;28673;44.412;11.918;2023-02-15T13:06:22;69.00;;;31.02;;
43048;SDS011;28673;44.412;11.918;2023-02-15T13:08:56;75.30;;;31.73;;
43048;SDS011;28673;44.412;11.918;2023-02-15T13:11:30;75.28;;;31.52;;
43048;SDS011;28673;44.412;11.918;2023-02-15T13:14:19;77.78;;;31.48;;
43048;SDS011;28673;44.412;11.918;2023-02-15T13:16:47;86.90;;;33.33;;
43048;SDS011;28673;44.412;11.918;2023-02-15T13:19:41;80.28;;;34.50;;
43048;SDS011;28673;44.412;11.918;2023-02-15T13:22:25;75.03;;;32.67;;
43048;SDS011;28673;44.412;11.918;2023-02-15T13:25:22;70.45;;;31.00;;
43048;SDS011;28673;44.412;11.918;2023-02-15T13:27:53;75.72;;;32.92;;
43048;SDS011;28673;44.412;11.918;2023-02-15T13:30:32;71.60;;;31.55;;
43048;SDS011;28673;44.412;11.918;2023-02-15T13:33:05;79.60;;;32.05;;
43048;SDS011;28673;44.412;11.918;2023-02-15T13:41:12;75.97;;;33.47;;
43048;SDS011;28673;44.412;11.918;2023-02-15T13:55:40;68.75;;;32.20;;
43048;SDS011;28673;44.412;11.918;2023-02-15T13:58:23;72.65;;;33.22;;
43048;SDS011;28673;44.412;11.918;2023-02-15T14:01:17;72.75;;;31.90;;
43048;SDS011;28673;44.412;11.918;2023-02-15T14:06:58;75.05;;;32.38;;
43048;SDS011;28673;44.412;11.918;2023-02-15T14:15:49;82.75;;;32.08;;
43048;SDS011;28673;44.412;11.918;2023-02-15T14:23:44;73.18;;;31.92;;
43048;SDS011;28673;44.412;11.918;2023-02-15T14:35:18;76.38;;;33.25;;
43048;SDS011;28673;44.412;11.918;2023-02-15T14:38:02;82.72;;;32.75;;
43048;SDS011;28673;44.412;11.918;2023-02-15T14:49:40;74.95;;;30.75;;
43048;SDS011;28673;44.412;11.918;2023-02-15T14:52:07;73.97;;;30.88;;
43048;SDS011;28673;44.412;11.918;2023-02-15T14:57:22;76.63;;;30.90;;
43048;SDS011;28673;44.412;11.918;2023-02-15T15:02:43;71.70;;;31.63;;
43048;SDS011;28673;44.412;11.918;2023-02-15T15:05:26;81.63;;;32.28;;
43048;SDS011;28673;44.412;11.918;2023-02-15T15:10:56;76.13;;;29.65;;
43048;SDS011;28673;44.412;11.918;2023-02-15T15:13:59;77.43;;;33.58;;
43048;SDS011;28673;44.412;11.918;2023-02-15T15:18:56;79.50;;;32.10;;
43048;SDS011;28673;44.412;11.918;2023-02-15T15:21:54;79.45;;;31.40;;
43048;SDS011;28673;44.412;11.918;2023-02-15T15:50:19;78.93;;;31.98;;
43048;SDS011;28673;44.412;11.918;2023-02-15T15:53:03;85.47;;;33.08;;
43048;SDS011;28673;44.412;11.918;2023-02-15T15:55:31;69.00;;;31.63;;
43048;SDS011;28673;44.412;11.918;2023-02-15T15:58:00;75.57;;;29.10;;
43048;SDS011;28673;44.412;11.918;2023-02-15T16:03:04;81.93;;;33.28;;
43048;SDS011;28673;44.412;11.918;2023-02-15T16:05:49;79.60;;;35.10;;
43048;SDS011;28673;44.412;11.918;2023-02-15T16:08:30;80.28;;;31.75;;
43048;SDS011;28673;44.412;11.918;2023-02-15T16:11:19;80.65;;;31.88;;
43048;SDS011;28673;44.412;11.918;2023-02-15T16:14:15;78.13;;;29.85;;
43048;SDS011;28673;44.412;11.918;2023-02-15T16:16:48;89.88;;;33.35;;
43048;SDS011;28673;44.412;11.918;2023-02-15T16:19:53;80.22;;;31.92;;
43048;SDS011;28673;44.412;11.918;2023-02-15T16:22:25;76.85;;;32.33;;
43048;SDS011;28673;44.412;11.918;2023-02-15T16:30:39;79.53;;;30.98;;
43048;SDS011;28673;44.412;11.918;2023-02-15T16:35:37;80.78;;;30.77;;
43048;SDS011;28673;44.412;11.918;2023-02-15T16:41:08;68.80;;;29.23;;
43048;SDS011;28673;44.412;11.918;2023-02-15T16:46:46;71.05;;;27.48;;
43048;SDS011;28673;44.412;11.918;2023-02-15T16:49:15;81.20;;;30.17;;
43048;SDS011;28673;44.412;11.918;2023-02-15T16:51:41;77.57;;;31.40;;
43048;SDS011;28673;44.412;11.918;2023-02-15T16:57:18;77.90;;;29.75;;
43048;SDS011;28673;44.412;11.918;2023-02-15T16:59:47;77.13;;;30.25;;
43048;SDS011;28673;44.412;11.918;2023-02-15T17:02:16;83.78;;;31.02;;
43048;SDS011;28673;44.412;11.918;2023-02-15T17:11:00;79.10;;;32.92;;
43048;SDS011;28673;44.412;11.918;2023-02-15T17:16:36;80.93;;;31.83;;
43048;SDS011;28673;44.412;11.918;2023-02-15T17:25:21;90.70;;;34.60;;
43048;SDS011;28673;44.412;11.918;2023-02-15T17:28:19;89.53;;;35.15;;
43048;SDS011;28673;44.412;11.918;2023-02-15T17:30:53;79.95;;;34.08;;
43048;SDS011;28673;44.412;11.918;2023-02-15T17:33:57;94.50;;;36.97;;
43048;SDS011;28673;44.412;11.918;2023-02-15T17:39:41;84.95;;;32.78;;
43048;SDS011;28673;44.412;11.918;2023-02-15T17:42:25;72.03;;;31.38;;
43048;SDS011;28673;44.412;11.918;2023-02-15T17:44:51;102.70;;;39.25;;
43048;SDS011;28673;44.412;11.918;2023-02-15T17:47:36;97.28;;;35.58;;
43048;SDS011;28673;44.412;11.918;2023-02-15T17:50:03;99.15;;;38.80;;
43048;SDS011;28673;44.412;11.918;2023-02-15T17:52:30;79.88;;;34.95;;
43048;SDS011;28673;44.412;11.918;2023-02-15T17:54:57;85.78;;;34.63;;
43048;SDS011;28673;44.412;11.918;2023-02-15T17:57:41;90.45;;;36.47;;
43048;SDS011;28673;44.412;11.918;2023-02-15T18:00:07;87.78;;;34.95;;
43048;SDS011;28673;44.412;11.918;2023-02-15T18:03:15;92.63;;;39.08;;
43048;SDS011;28673;44.412;11.918;2023-02-15T18:06:19;93.03;;;38.10;;
43048;SDS011;28673;44.412;11.918;2023-02-15T18:12:27;90.43;;;39.55;;
43048;SDS011;28673;44.412;11.918;2023-02-15T18:15:12;95.00;;;38.58;;
43048;SDS011;28673;44.412;11.918;2023-02-15T18:17:39;95.13;;;36.22;;
43048;SDS011;28673;44.412;11.918;2023-02-15T18:20:43;84.45;;;38.22;;
43048;SDS011;28673;44.412;11.918;2023-02-15T18:23:15;105.07;;;42.33;;
43048;SDS011;28673;44.412;11.918;2023-02-15T18:25:41;90.20;;;42.30;;
43048;SDS011;28673;44.412;11.918;2023-02-15T18:28:07;106.78;;;45.22;;
43048;SDS011;28673;44.412;11.918;2023-02-15T18:30:55;86.18;;;37.28;;
43048;SDS011;28673;44.412;11.918;2023-02-15T18:36:02;101.57;;;45.47;;
43048;SDS011;28673;44.412;11.918;2023-02-15T18:38:30;102.55;;;46.85;;
43048;SDS011;28673;44.412;11.918;2023-02-15T18:40:59;102.30;;;44.63;;
43048;SDS011;28673;44.412;11.918;2023-02-15T18:46:34;101.43;;;43.13;;
43048;SDS011;28673;44.412;11.918;2023-02-15T18:49:01;83.88;;;38.92;;
43048;SDS011;28673;44.412;11.918;2023-02-15T18:51:27;105.75;;;44.08;;
43048;SDS011;28673;44.412;11.918;2023-02-15T18:56:57;95.03;;;41.95;;
43048;SDS011;28673;44.412;11.918;2023-02-15T18:59:26;96.75;;;41.17;;
43048;SDS011;28673;44.412;11.918;2023-02-15T19:02:12;96.40;;;44.67;;
43048;SDS011;28673;44.412;11.918;2023-02-15T19:04:39;99.13;;;41.58;;
43048;SDS011;28673;44.412;11.918;2023-02-15T19:07:05;91.65;;;41.05;;
43048;SDS011;28673;44.412;11.918;2023-02-15T19:09:40;89.20;;;41.72;;
43048;SDS011;28673;44.412;11.918;2023-02-15T19:15:20;104.93;;;41.50;;
43048;SDS011;28673;44.412;11.918;2023-02-15T19:17:48;86.13;;;41.17;;
43048;SDS011;28673;44.412;11.918;2023-02-15T19:22:51;90.90;;;41.92;;
43048;SDS011;28673;44.412;11.918;2023-02-15T19:25:29;103.32;;;43.88;;
43048;SDS011;28673;44.412;11.918;2023-02-15T19:28:17;99.05;;;44.17;;
43048;SDS011;28673;44.412;11.918;2023-02-15T19:30:54;98.88;;;45.25;;
43048;SDS011;28673;44.412;11.918;2023-02-15T19:33:38;108.18;;;46.80;;
43048;SDS011;28673;44.412;11.918;2023-02-15T19:36:05;95.72;;;44.35;;
43048;SDS011;28673;44.412;11.918;2023-02-15T19:38:56;107.70;;;49.38;;
43048;SDS011;28673;44.412;11.918;2023-02-15T19:41:24;102.43;;;47.42;;
43048;SDS011;28673;44.412;11.918;2023-02-15T19:43:55;111.18;;;50.55;;
43048;SDS011;28673;44.412;11.918;2023-02-15T19:46:21;102.20;;;45.33;;
43048;SDS011;28673;44.412;11.918;2023-02-15T19:51:34;105.30;;;49.75;;
43048;SDS011;28673;44.412;11.918;2023-02-15T19:54:00;105.28;;;46.83;;
43048;SDS011;28673;44.412;11.918;2023-02-15T19:56:26;114.00;;;48.30;;
43048;SDS011;28673;44.412;11.918;2023-02-15T19:58:53;110.10;;;50.42;;
43048;SDS011;28673;44.412;11.918;2023-02-15T20:01:37;104.32;;;49.15;;
43048;SDS011;28673;44.412;11.918;2023-02-15T20:07:12;112.88;;;50.97;;
43048;SDS011;28673;44.412;11.918;2023-02-15T20:09:51;116.55;;;51.90;;
43048;SDS011;28673;44.412;11.918;2023-02-15T20:15:39;117.93;;;51.55;;
43048;SDS011;28673;44.412;11.918;2023-02-15T20:18:06;105.93;;;48.42;;
43048;SDS011;28673;44.412;11.918;2023-02-15T20:23:04;116.30;;;53.40;;
43048;SDS011;28673;44.412;11.918;2023-02-15T20:25:31;119.85;;;52.22;;
43048;SDS011;28673;44.412;11.918;2023-02-15T20:27:58;124.93;;;56.35;;
43048;SDS011;28673;44.412;11.918;2023-02-15T20:30:26;115.05;;;52.42;;
43048;SDS011;28673;44.412;11.918;2023-02-15T20:32:53;121.70;;;52.92;;
43048;SDS011;28673;44.412;11.918;2023-02-15T20:35:21;113.30;;;51.83;;
43048;SDS011;28673;44.412;11.918;2023-02-15T20:37:49;129.88;;;55.30;;
43048;SDS011;28673;44.412;11.918;2023-02-15T20:40:21;109.88;;;50.67;;
43048;SDS011;28673;44.412;11.918;2023-02-15T20:42:50;116.38;;;53.60;;